createdAt,value
2023-05-10T00:01:52.539Z,101176.48
2023-05-10T00:04:19.218Z,101177.60
2023-05-10T00:06:46.071Z,101179.29
2023-05-10T00:09:12.804Z,101178.33
2023-05-10T00:11:39.405Z,101173.98
2023-05-10T00:14:06.160Z,101175.11
2023-05-10T00:16:32.881Z,101177.45
2023-05-10T00:18:59.665Z,101171.38
2023-05-10T00:21:26.441Z,101173.61
2023-05-10T00:23:53.115Z,101172.70
2023-05-10T00:26:19.751Z,101170.51
2023-05-10T00:28:46.918Z,101172.04
2023-05-10T00:31:14.016Z,101169.73
2023-05-10T00:33:40.737Z,101169.16
2023-05-10T00:36:08.696Z,101169.95
2023-05-10T00:38:35.439Z,101169.24
2023-05-10T00:41:03.743Z,101169.21
2023-05-10T00:43:31.278Z,101167.48
2023-05-10T00:45:58.106Z,101167.83
2023-05-10T00:48:24.733Z,101162.02
2023-05-10T00:50:51.302Z,101166.82
2023-05-10T00:53:19.044Z,101167.33
2023-05-10T00:57:35.071Z,101161.33
2023-05-10T01:00:02.915Z,101163.12
2023-05-10T01:02:29.683Z,101162.67
2023-05-10T01:04:57.270Z,101165.41
2023-05-10T01:07:24.402Z,101167.11
2023-05-10T01:09:51.084Z,101166.53
2023-05-10T01:12:17.693Z,101169.66
2023-05-10T01:14:44.380Z,101168.27
2023-05-10T01:17:12.132Z,101165.90
2023-05-10T01:19:39.149Z,101170.15
2023-05-10T01:22:17.708Z,101165.77
2023-05-10T01:24:59.578Z,101168.25
2023-05-10T01:27:49.133Z,101167.40
2023-05-10T01:30:42.179Z,101163.59
2023-05-10T01:33:37.510Z,101164.27
2023-05-10T01:36:17.416Z,101165.84
2023-05-10T01:38:47.229Z,101163.47
2023-05-10T01:41:26.826Z,101162.86
2023-05-10T01:44:30.242Z,101164.06
2023-05-10T01:47:06.182Z,101159.48
2023-05-10T01:49:35.805Z,101157.67
2023-05-10T01:52:08.439Z,101156.06
2023-05-10T01:54:35.061Z,101156.44
2023-05-10T01:57:04.930Z,101156.34
2023-05-10T01:59:32.830Z,101155.92
2023-05-10T02:02:00.057Z,101155.86
2023-05-10T02:04:26.993Z,101155.91
2023-05-10T02:06:54.134Z,101152.47
2023-05-10T02:09:21.295Z,101155.25
2023-05-10T02:11:49.065Z,101151.17
2023-05-10T02:14:16.089Z,101154.65
2023-05-10T02:16:42.919Z,101152.52
2023-05-10T02:19:10.012Z,101150.86
2023-05-10T02:21:36.893Z,101153.09
2023-05-10T02:24:03.893Z,101153.97
2023-05-10T02:26:30.832Z,101153.37
2023-05-10T02:28:57.487Z,101154.00
2023-05-10T02:31:24.181Z,101154.28
2023-05-10T02:33:50.964Z,101159.29
2023-05-10T02:36:18.432Z,101164.43
2023-05-10T02:38:45.520Z,101160.44
2023-05-10T02:41:12.140Z,101161.52
2023-05-10T02:43:38.715Z,101161.86
2023-05-10T02:46:05.583Z,101158.14
2023-05-10T02:48:32.282Z,101158.39
2023-05-10T02:51:03.719Z,101157.58
2023-05-10T02:53:35.513Z,101161.27
2023-05-10T02:56:05.324Z,101160.96
2023-05-10T02:58:32.315Z,101160.02
2023-05-10T03:00:58.960Z,101159.86
2023-05-10T03:03:25.586Z,101158.60
2023-05-10T03:05:56.770Z,101167.05
2023-05-10T03:08:24.375Z,101167.80
2023-05-10T03:11:07.216Z,101168.85
2023-05-10T03:13:38.959Z,101169.20
2023-05-10T03:16:26.388Z,101166.19
2023-05-10T03:19:01.297Z,101167.57
2023-05-10T03:21:29.696Z,101171.89
2023-05-10T03:24:09.518Z,101170.96
2023-05-10T03:26:36.947Z,101172.59
2023-05-10T03:29:08.607Z,101174.23
2023-05-10T03:31:35.386Z,101169.52
2023-05-10T03:34:02.369Z,101168.06
2023-05-10T03:36:29.225Z,101169.73
2023-05-10T03:38:56.017Z,101172.43
2023-05-10T03:41:22.863Z,101172.41
2023-05-10T03:43:49.551Z,101172.33
2023-05-10T03:46:16.313Z,101177.11
2023-05-10T03:48:43.157Z,101175.20
2023-05-10T03:51:09.828Z,101177.11
2023-05-10T03:53:36.745Z,101178.99
2023-05-10T03:56:03.453Z,101176.30
2023-05-10T03:58:30.287Z,101181.98
2023-05-10T04:00:56.981Z,101183.41
2023-05-10T04:03:24.215Z,101181.02
2023-05-10T04:05:59.736Z,101178.68
2023-05-10T04:08:27.499Z,101178.99
2023-05-10T04:10:54.407Z,101177.73
2023-05-10T04:13:21.793Z,101180.70
2023-05-10T04:15:48.508Z,101179.42
2023-05-10T04:18:15.136Z,101179.96
2023-05-10T04:20:41.746Z,101181.11
2023-05-10T04:23:08.367Z,101177.06
2023-05-10T04:25:36.497Z,101177.27
2023-05-10T04:28:03.249Z,101171.67
2023-05-10T04:30:30.362Z,101167.90
2023-05-10T04:32:57.095Z,101164.95
2023-05-10T04:35:23.856Z,101163.86
2023-05-10T04:37:50.725Z,101163.95
2023-05-10T04:40:17.517Z,101164.30
2023-05-10T04:42:44.763Z,101163.68
2023-05-10T04:45:11.720Z,101157.73
2023-05-10T04:47:38.407Z,101154.80
2023-05-10T04:50:06.310Z,101154.63
2023-05-10T04:52:33.080Z,101152.23
2023-05-10T04:54:59.699Z,101150.95
2023-05-10T04:57:26.271Z,101152.59
2023-05-10T04:59:53.077Z,101151.66
2023-05-10T05:02:19.805Z,101152.50
2023-05-10T05:04:46.451Z,101154.88
2023-05-10T05:07:13.114Z,101153.92
2023-05-10T05:09:39.737Z,101150.15
2023-05-10T05:12:06.711Z,101150.57
2023-05-10T05:14:33.320Z,101151.13
2023-05-10T05:17:00.032Z,101150.63
2023-05-10T05:19:26.652Z,101143.45
2023-05-10T05:21:53.260Z,101146.61
2023-05-10T05:24:19.973Z,101148.11
2023-05-10T05:26:47.320Z,101146.86
2023-05-10T05:29:14.051Z,101145.66
2023-05-10T05:31:40.805Z,101149.14
2023-05-10T05:34:07.455Z,101145.34
2023-05-10T05:36:39.435Z,101150.58
2023-05-10T05:39:06.124Z,101147.20
2023-05-10T05:41:32.739Z,101148.87
2023-05-10T05:43:59.714Z,101145.09
2023-05-10T05:46:26.519Z,101141.42
2023-05-10T05:48:53.294Z,101140.23
2023-05-10T05:51:19.979Z,101138.27
2023-05-10T05:53:46.710Z,101140.08
2023-05-10T05:56:13.352Z,101138.76
2023-05-10T05:58:40.292Z,101139.98
2023-05-10T06:01:06.931Z,101135.76
2023-05-10T06:03:33.799Z,101141.08
2023-05-10T06:06:00.553Z,101140.06
2023-05-10T06:08:27.192Z,101139.85
2023-05-10T06:10:53.788Z,101137.04
2023-05-10T06:13:20.394Z,101137.77
2023-05-10T06:15:47.378Z,101132.64
2023-05-10T06:18:14.050Z,101131.45
2023-05-10T06:20:42.355Z,101126.22
2023-05-10T06:23:08.986Z,101129.75
2023-05-10T06:25:35.594Z,101125.04
2023-05-10T06:28:03.539Z,101126.35
2023-05-10T06:30:31.056Z,101128.54
2023-05-10T06:32:58.489Z,101122.02
2023-05-10T06:35:27.119Z,101124.04
2023-05-10T06:37:54.882Z,101134.14
2023-05-10T06:40:25.061Z,101137.50
2023-05-10T06:42:53.387Z,101143.27
2023-05-10T06:45:21.117Z,101139.02
2023-05-10T06:47:48.627Z,101143.36
2023-05-10T06:50:16.586Z,101143.00
2023-05-10T06:52:44.291Z,101146.55
2023-05-10T06:55:12.029Z,101141.63
2023-05-10T06:57:39.484Z,101140.51
2023-05-10T07:00:08.389Z,101137.20
2023-05-10T07:02:35.938Z,101140.91
2023-05-10T07:05:03.992Z,101140.86
2023-05-10T07:07:31.570Z,101137.79
2023-05-10T07:09:59.102Z,101134.29
2023-05-10T07:12:29.471Z,101135.03
2023-05-10T07:14:59.223Z,101141.67
2023-05-10T07:17:27.193Z,101141.15
2023-05-10T07:22:22.218Z,101136.80
2023-05-10T07:24:49.665Z,101140.42
2023-05-10T07:27:17.036Z,101140.16
2023-05-10T07:29:44.460Z,101138.55
2023-05-10T07:32:11.992Z,101137.42
2023-05-10T07:34:39.612Z,101141.94
2023-05-10T07:37:07.976Z,101143.02
2023-05-10T07:39:35.546Z,101137.17
2023-05-10T07:42:03.014Z,101133.17
2023-05-10T07:44:30.459Z,101129.77
2023-05-10T07:46:57.276Z,101124.33
2023-05-10T07:49:25.282Z,101120.08
2023-05-10T07:51:51.972Z,101127.29
2023-05-10T07:54:18.590Z,101127.09
2023-05-10T07:56:48.126Z,101125.61
2023-05-10T07:59:18.149Z,101120.04
2023-05-10T08:01:44.889Z,101128.30
2023-05-10T08:04:12.682Z,101124.52
2023-05-10T08:06:40.431Z,101122.56
2023-05-10T08:09:07.410Z,101117.64
2023-05-10T08:11:35.157Z,101120.13
2023-05-10T08:14:02.303Z,101116.14
2023-05-10T08:16:29.999Z,101114.35
2023-05-10T08:18:56.893Z,101119.79
2023-05-10T08:21:23.821Z,101110.86
2023-05-10T08:23:50.697Z,101110.48
2023-05-10T08:26:17.317Z,101109.44
2023-05-10T08:28:43.960Z,101112.14
2023-05-10T08:31:10.577Z,101107.23
2023-05-10T08:33:37.223Z,101106.15
2023-05-10T08:36:04.031Z,101109.05
2023-05-10T08:38:30.824Z,101119.64
2023-05-10T08:40:58.052Z,101116.48
2023-05-10T08:43:30.139Z,101116.88
2023-05-10T08:45:59.784Z,101123.02
2023-05-10T08:48:26.775Z,101127.68
2023-05-10T08:50:55.614Z,101122.16
2023-05-10T08:53:22.270Z,101121.61
2023-05-10T08:55:48.920Z,101114.92
2023-05-10T08:58:15.722Z,101115.64
2023-05-10T09:00:42.527Z,101118.87
2023-05-10T09:03:09.294Z,101123.00
2023-05-10T09:05:37.343Z,101124.50
2023-05-10T09:08:04.151Z,101122.50
2023-05-10T09:10:31.149Z,101123.11
2023-05-10T09:12:59.347Z,101120.39
2023-05-10T09:15:26.450Z,101118.88
2023-05-10T09:17:53.687Z,101122.02
2023-05-10T09:20:20.799Z,101117.88
2023-05-10T09:22:47.484Z,101117.36
2023-05-10T09:25:15.762Z,101119.06
2023-05-10T09:27:46.082Z,101115.84
2023-05-10T09:30:17.742Z,101116.61
2023-05-10T09:32:45.815Z,101115.09
2023-05-10T09:35:16.862Z,101112.45
2023-05-10T09:37:45.646Z,101111.34
2023-05-10T09:40:16.792Z,101111.61
2023-05-10T09:42:51.598Z,101114.77
2023-05-10T09:45:18.560Z,101107.62
2023-05-10T09:47:45.453Z,101110.82
2023-05-10T09:50:12.463Z,101110.48
2023-05-10T09:52:55.504Z,101109.54
2023-05-10T09:55:23.546Z,101110.32
2023-05-10T09:57:51.024Z,101107.08
2023-05-10T10:00:21.608Z,101106.34
2023-05-10T10:02:54.697Z,101106.78
2023-05-10T10:05:21.387Z,101106.05
2023-05-10T10:07:48.096Z,101101.73
2023-05-10T10:10:14.776Z,101099.27
2023-05-10T10:12:41.998Z,101103.35
2023-05-10T10:15:10.046Z,101102.16
2023-05-10T10:17:37.184Z,101105.45
2023-05-10T10:20:04.520Z,101102.20
2023-05-10T10:22:31.115Z,101100.73
2023-05-10T10:24:57.889Z,101103.15
2023-05-10T10:27:27.962Z,101102.61
2023-05-10T10:30:05.463Z,101102.13
2023-05-10T10:32:50.855Z,101102.29
2023-05-10T10:35:17.737Z,101100.89
2023-05-10T10:37:46.400Z,101102.84
2023-05-10T10:40:34.660Z,101096.23
2023-05-10T10:43:27.742Z,101098.70
2023-05-10T10:46:16.432Z,101092.55
2023-05-10T10:48:48.911Z,101090.52
2023-05-10T10:51:15.732Z,101085.20
2023-05-10T10:53:42.408Z,101080.52
2023-05-10T10:56:14.610Z,101078.88
2023-05-10T10:58:41.689Z,101076.08
2023-05-10T11:01:12.265Z,101076.02
2023-05-10T11:03:39.044Z,101074.77
2023-05-10T11:06:05.790Z,101073.02
2023-05-10T11:08:34.044Z,101071.14
2023-05-10T11:11:04.168Z,101071.38
2023-05-10T11:13:44.908Z,101067.92
2023-05-10T11:16:17.622Z,101067.88
2023-05-10T11:19:03.958Z,101060.09
2023-05-10T11:21:32.111Z,101062.71
2023-05-10T11:23:59.722Z,101061.05
2023-05-10T11:26:28.935Z,101057.04
2023-05-10T11:29:00.183Z,101052.77
2023-05-10T11:31:27.997Z,101050.54
2023-05-10T11:33:56.649Z,101049.20
2023-05-10T11:36:28.338Z,101051.80
2023-05-10T11:38:55.966Z,101050.98
2023-05-10T11:41:23.334Z,101053.03
2023-05-10T11:43:54.059Z,101056.09
2023-05-10T11:46:22.029Z,101059.09
2023-05-10T11:48:53.115Z,101058.05
2023-05-10T11:51:23.739Z,101059.90
2023-05-10T11:53:51.750Z,101057.45
2023-05-10T11:56:18.467Z,101051.00
2023-05-10T11:58:45.157Z,101050.61
2023-05-10T12:01:11.809Z,101054.44
2023-05-10T12:03:38.545Z,101053.45
2023-05-10T12:06:05.945Z,101051.09
2023-05-10T12:08:32.579Z,101051.96
2023-05-10T12:11:09.574Z,101056.15
2023-05-10T12:13:41.273Z,101052.83
2023-05-10T12:16:34.196Z,101054.45
2023-05-10T12:19:01.694Z,101053.34
2023-05-10T12:21:29.924Z,101047.88
2023-05-10T12:24:01.256Z,101045.94
2023-05-10T12:26:28.867Z,101045.03
2023-05-10T12:28:55.964Z,101046.54
2023-05-10T12:31:22.807Z,101048.08
2023-05-10T12:33:50.492Z,101048.30
2023-05-10T12:36:17.469Z,101042.93
2023-05-10T12:38:45.478Z,101040.59
2023-05-10T12:41:13.644Z,101049.10
2023-05-10T12:43:40.779Z,101043.40
2023-05-10T12:46:12.255Z,101044.30
2023-05-10T12:48:39.533Z,101045.80
2023-05-10T12:51:06.801Z,101041.42
2023-05-10T12:53:33.503Z,101046.67
2023-05-10T12:56:00.179Z,101038.98
2023-05-10T12:58:34.855Z,101037.22
2023-05-10T13:01:03.298Z,101032.51
2023-05-10T13:03:30.100Z,101032.27
2023-05-10T13:05:56.807Z,101030.17
2023-05-10T13:08:23.496Z,101031.83
2023-05-10T13:10:50.170Z,101026.24
2023-05-10T13:15:33.047Z,101026.61
2023-05-10T13:17:59.753Z,101020.42
2023-05-10T13:20:26.544Z,101023.16
2023-05-10T13:22:53.184Z,101021.16
2023-05-10T13:25:19.824Z,101024.75
2023-05-10T13:27:46.667Z,101021.79
2023-05-10T13:30:13.584Z,101015.39
2023-05-10T13:32:40.703Z,101013.13
2023-05-10T13:35:08.015Z,101011.98
2023-05-10T13:37:38.213Z,101017.71
2023-05-10T13:40:05.995Z,101017.52
2023-05-10T13:42:34.561Z,101016.14
2023-05-10T13:45:02.805Z,101024.11
2023-05-10T13:47:29.534Z,101023.06
2023-05-10T13:49:56.379Z,101023.18
2023-05-10T13:52:22.998Z,101023.73
2023-05-10T13:54:49.741Z,101024.97
2023-05-10T13:57:17.911Z,101025.64
2023-05-10T13:59:44.858Z,101023.79
2023-05-10T14:02:13.597Z,101021.11
2023-05-10T14:04:40.711Z,101022.97
2023-05-10T14:07:07.639Z,101026.22
2023-05-10T14:09:34.574Z,101026.58
2023-05-10T14:12:01.427Z,101031.41
2023-05-10T14:14:30.199Z,101027.91
2023-05-10T14:16:57.324Z,101025.36
2023-05-10T14:19:24.107Z,101026.91
2023-05-10T14:21:50.837Z,101026.37
2023-05-10T14:24:17.477Z,101025.91
2023-05-10T14:26:44.076Z,101024.83
2023-05-10T14:29:12.461Z,101026.13
2023-05-10T14:31:39.770Z,101022.85
2023-05-10T14:34:06.835Z,101020.40
2023-05-10T14:36:33.665Z,101020.48
2023-05-10T14:39:00.751Z,101012.80
2023-05-10T14:41:27.405Z,101015.91
2023-05-10T14:43:54.128Z,101016.19
2023-05-10T14:46:20.893Z,101015.14
2023-05-10T14:48:47.628Z,101012.39
2023-05-10T14:51:14.547Z,101017.34
2023-05-10T14:53:41.457Z,101012.79
2023-05-10T14:56:08.668Z,101010.91
2023-05-10T14:58:35.529Z,101011.36
2023-05-10T15:01:02.456Z,101011.27
2023-05-10T15:03:29.959Z,101009.38
2023-05-10T15:05:58.805Z,101006.27
2023-05-10T15:08:25.846Z,101005.78
2023-05-10T15:10:52.905Z,101002.69
2023-05-10T15:13:19.764Z,101002.56
2023-05-10T15:15:46.613Z,101003.65
2023-05-10T15:18:13.412Z,101001.88
2023-05-10T15:20:40.160Z,101006.23
2023-05-10T15:23:06.784Z,101006.70
2023-05-10T15:25:35.960Z,101001.02
2023-05-10T15:28:03.788Z,101003.51
2023-05-10T15:30:30.663Z,101005.22
2023-05-10T15:32:57.703Z,101002.71
2023-05-10T15:35:24.584Z,101000.45
2023-05-10T15:37:51.544Z,101001.50
2023-05-10T15:40:18.693Z,101000.05
2023-05-10T15:42:45.490Z,101001.18
2023-05-10T15:45:12.566Z,100999.11
2023-05-10T15:47:40.628Z,100997.83
2023-05-10T15:50:08.534Z,100995.48
2023-05-10T15:52:36.221Z,100995.33
2023-05-10T15:55:04.079Z,100996.04
2023-05-10T15:57:30.707Z,100997.94
2023-05-10T15:59:57.864Z,100995.61
2023-05-10T16:02:24.622Z,100993.77
2023-05-10T16:04:51.813Z,100994.28
2023-05-10T16:07:18.512Z,100993.69
2023-05-10T16:09:45.214Z,100992.83
2023-05-10T16:12:11.839Z,100992.77
2023-05-10T16:14:38.589Z,100990.11
2023-05-10T16:17:06.013Z,100990.65
2023-05-10T16:19:32.886Z,100989.44
2023-05-10T16:21:59.542Z,100993.23
2023-05-10T16:24:26.319Z,100995.08
2023-05-10T16:26:52.958Z,100992.96
2023-05-10T16:29:19.581Z,100997.05
2023-05-10T16:31:46.489Z,100997.18
2023-05-10T16:34:13.221Z,101000.90
2023-05-10T16:36:39.962Z,101001.59
2023-05-10T16:39:06.855Z,101003.37
2023-05-10T16:41:34.570Z,101002.77
2023-05-10T16:44:02.309Z,101004.38
2023-05-10T16:46:29.189Z,101002.52
2023-05-10T16:48:56.072Z,101003.39
2023-05-10T16:51:23.482Z,101008.64
2023-05-10T16:53:50.284Z,101005.71
2023-05-10T16:56:21.844Z,101007.75
2023-05-10T16:58:51.730Z,101007.12
2023-05-10T17:01:18.389Z,101010.30
2023-05-10T17:03:45.392Z,101010.77
2023-05-10T17:06:12.256Z,101013.89
2023-05-10T17:08:39.152Z,101015.72
2023-05-10T17:11:06.078Z,101018.23
2023-05-10T17:13:32.731Z,101021.13
2023-05-10T17:16:03.530Z,101022.55
2023-05-10T17:18:30.757Z,101024.48
2023-05-10T17:20:57.457Z,101025.45
2023-05-10T17:23:24.104Z,101029.16
2023-05-10T17:25:50.956Z,101027.42
2023-05-10T17:28:17.609Z,101029.52
2023-05-10T17:30:44.727Z,101030.45
2023-05-10T17:33:11.492Z,101032.34
2023-05-10T17:35:38.145Z,101032.80
2023-05-10T17:38:04.810Z,101037.59
2023-05-10T17:40:32.182Z,101040.51
2023-05-10T17:42:58.809Z,101039.50
2023-05-10T17:45:26.368Z,101044.58
2023-05-10T17:47:53.274Z,101045.27
2023-05-10T17:50:20.132Z,101050.45
2023-05-10T17:52:46.960Z,101048.99
2023-05-10T17:55:13.623Z,101054.64
2023-05-10T17:57:40.500Z,101058.80
2023-05-10T18:00:08.839Z,101059.64
2023-05-10T18:02:38.568Z,101064.90
2023-05-10T18:05:06.030Z,101067.61
2023-05-10T18:07:32.860Z,101069.13
2023-05-10T18:10:01.077Z,101068.99
2023-05-10T18:12:27.867Z,101071.77
2023-05-10T18:14:54.535Z,101073.52
2023-05-10T18:17:21.201Z,101074.92
2023-05-10T18:19:47.800Z,101081.96
2023-05-10T18:22:14.459Z,101082.95
2023-05-10T18:24:41.287Z,101087.22
2023-05-10T18:27:09.009Z,101089.48
2023-05-10T18:29:36.389Z,101089.05
2023-05-10T18:32:03.065Z,101089.39
2023-05-10T18:34:29.807Z,101093.66
2023-05-10T18:36:56.665Z,101094.76
2023-05-10T18:39:24.323Z,101093.50
2023-05-10T18:41:51.014Z,101094.14
2023-05-10T18:44:18.960Z,101095.06
2023-05-10T18:46:46.360Z,101097.23
2023-05-10T18:49:13.359Z,101095.05
2023-05-10T18:51:40.256Z,101096.06
2023-05-10T18:54:07.423Z,101097.77
2023-05-10T18:56:34.168Z,101096.93
2023-05-10T18:59:00.856Z,101090.98
2023-05-10T19:01:27.686Z,101093.10
2023-05-10T19:03:54.327Z,101095.49
2023-05-10T19:06:21.000Z,101093.94
2023-05-10T19:08:47.634Z,101095.06
2023-05-10T19:11:14.340Z,101098.10
2023-05-10T19:13:41.051Z,101100.30
2023-05-10T19:16:14.314Z,101103.90
2023-05-10T19:18:42.340Z,101108.37
2023-05-10T19:21:11.017Z,101106.19
2023-05-10T19:23:40.042Z,101111.48
2023-05-10T19:26:06.693Z,101111.95
2023-05-10T19:28:35.054Z,101112.91
2023-05-10T19:31:01.965Z,101110.13
2023-05-10T19:33:28.887Z,101115.27
2023-05-10T19:35:55.788Z,101117.05
2023-05-10T19:38:23.135Z,101117.23
2023-05-10T19:40:50.930Z,101116.37
2023-05-10T19:43:18.274Z,101117.23
2023-05-10T19:45:45.089Z,101122.67
2023-05-10T19:48:12.405Z,101120.14
2023-05-10T19:50:39.192Z,101118.80
2023-05-10T19:53:06.080Z,101119.05
2023-05-10T19:55:32.844Z,101117.18
2023-05-10T19:58:02.028Z,101118.89
2023-05-10T20:00:28.909Z,101115.83
2023-05-10T20:02:56.000Z,101123.45
2023-05-10T20:05:22.729Z,101122.46
2023-05-10T20:07:49.796Z,101118.48
2023-05-10T20:10:17.429Z,101119.33
2023-05-10T20:12:53.975Z,101115.20
2023-05-10T20:15:21.859Z,101116.95
2023-05-10T20:17:49.387Z,101118.66
2023-05-10T20:20:17.001Z,101120.13
2023-05-10T20:22:44.348Z,101118.46
2023-05-10T20:25:11.185Z,101119.67
2023-05-10T20:27:38.053Z,101121.81
2023-05-10T20:30:05.716Z,101121.08
2023-05-10T20:32:32.586Z,101117.41
2023-05-10T20:34:59.227Z,101120.60
2023-05-10T20:37:27.488Z,101123.35
2023-05-10T20:39:54.729Z,101122.60
2023-05-10T20:42:21.717Z,101120.95
2023-05-10T20:44:48.382Z,101120.31
2023-05-10T20:47:15.395Z,101115.78
2023-05-10T20:49:42.711Z,101114.10
2023-05-10T20:52:09.500Z,101116.83
2023-05-10T20:54:36.098Z,101116.31
2023-05-10T20:57:02.766Z,101118.78
2023-05-10T20:59:29.546Z,101116.52
2023-05-10T21:01:59.572Z,101119.16
2023-05-10T21:04:26.375Z,101117.67
2023-05-10T21:06:53.454Z,101121.96
2023-05-10T21:09:20.103Z,101120.65
2023-05-10T21:11:46.690Z,101120.55
2023-05-10T21:14:13.341Z,101118.84
2023-05-10T21:16:40.153Z,101119.55
2023-05-10T21:19:09.925Z,101119.23
2023-05-10T21:21:36.677Z,101120.33
2023-05-10T21:24:03.608Z,101117.59
2023-05-10T21:26:30.586Z,101116.46
2023-05-10T21:28:58.262Z,101118.80
2023-05-10T21:31:25.129Z,101120.33
2023-05-10T21:33:51.859Z,101121.98
2023-05-10T21:36:18.550Z,101124.83
2023-05-10T21:38:45.308Z,101125.17
2023-05-10T21:41:12.324Z,101124.80
2023-05-10T21:43:38.948Z,101125.15
2023-05-10T21:46:05.613Z,101125.23
2023-05-10T21:48:32.451Z,101125.98
2023-05-10T21:50:59.194Z,101126.54
2023-05-10T21:53:25.792Z,101123.98
2023-05-10T21:55:52.463Z,101127.48
2023-05-10T21:58:19.091Z,101128.52
2023-05-10T22:00:45.731Z,101125.55
2023-05-10T22:03:12.452Z,101124.42
2023-05-10T22:05:39.431Z,101126.11
2023-05-10T22:08:06.710Z,101127.52
2023-05-10T22:10:33.895Z,101129.09
2023-05-10T22:13:00.681Z,101128.92
2023-05-10T22:15:28.329Z,101127.71
2023-05-10T22:17:54.938Z,101131.38
2023-05-10T22:20:22.156Z,101129.66
2023-05-10T22:22:49.004Z,101129.36
2023-05-10T22:25:15.639Z,101130.42
2023-05-10T22:27:42.326Z,101132.49
2023-05-10T22:30:09.554Z,101134.24
2023-05-10T22:32:36.256Z,101132.95
2023-05-10T22:35:03.522Z,101140.14
2023-05-10T22:37:30.310Z,101140.77
2023-05-10T22:39:57.153Z,101138.27
2023-05-10T22:42:23.794Z,101137.36
2023-05-10T22:44:50.633Z,101138.19
2023-05-10T22:47:17.277Z,101137.11
2023-05-10T22:49:43.925Z,101136.30
2023-05-10T22:52:10.884Z,101136.09
2023-05-10T22:54:37.503Z,101133.56
2023-05-10T22:57:04.585Z,101134.17
2023-05-10T22:59:31.526Z,101132.16
2023-05-10T23:01:58.319Z,101132.04
2023-05-10T23:04:25.153Z,101132.87
2023-05-10T23:06:51.917Z,101134.23
2023-05-10T23:09:18.820Z,101132.23
2023-05-10T23:11:45.452Z,101133.75
2023-05-10T23:14:12.132Z,101132.13
2023-05-10T23:16:39.070Z,101133.63
2023-05-10T23:19:06.798Z,101135.19
2023-05-10T23:21:34.584Z,101135.71
2023-05-10T23:24:01.245Z,101138.11
2023-05-10T23:26:27.927Z,101136.50
2023-05-10T23:28:54.532Z,101139.59
2023-05-10T23:31:21.189Z,101137.23
2023-05-10T23:33:47.876Z,101143.83
2023-05-10T23:36:14.541Z,101144.35
2023-05-10T23:38:41.408Z,101144.70
2023-05-10T23:41:08.022Z,101145.17
2023-05-10T23:43:34.648Z,101143.27
2023-05-10T23:46:01.728Z,101147.38
2023-05-10T23:48:28.625Z,101151.86
2023-05-10T23:50:55.215Z,101154.09
2023-05-10T23:53:21.844Z,101157.59
2023-05-10T23:55:48.678Z,101154.13
2023-05-10T23:58:15.370Z,101155.63
